Rye Brook, New York
Current Conditions -  °F | °C
As of 4:56 AM on Tuesday 27 Jan 2015 (Local Time) from KHPN Reporting Station
Light Snow Light Snow  
Wind Chill:   Ceiling: 400
Heat Index: 18°   Visibility: 1mi
Dew Point: 13°   Wind: 23mph
Humidity: 81%   Direction: 340°NNW
Pressure: 29.61"   Gusts: 35mph
Location:  41.0136°N, 73.6759°W
Report Text: KHPN 270956Z 34020G30KT 1SM R16/P6000FT -SN BR VV004 M08/M11 A2961 RMK AO2 PK WND 34030/0951 SLP037 P0001 T10781106
Loading
Personal Weather Stations






























Interactive Weather Map New forecast layout! Learn more

10-Day Weather Forecast

Advertisements
Track Severe Weather on mobile